createdAt,value
2018-08-03T00:00:10.669Z,6.83
2018-08-03T00:02:39.480Z,6.60
2018-08-03T00:05:08.392Z,7.20
2018-08-03T00:07:37.252Z,7.40
2018-08-03T00:10:06.975Z,6.37
2018-08-03T00:12:35.701Z,7.10
2018-08-03T00:15:05.033Z,6.43
2018-08-03T00:17:33.645Z,7.10
2018-08-03T00:20:02.491Z,6.67
2018-08-03T00:22:31.189Z,6.53
2018-08-03T00:24:59.897Z,6.23
2018-08-03T00:27:28.642Z,6.27
2018-08-03T00:29:57.284Z,6.57
2018-08-03T00:32:26.006Z,7.10
2018-08-03T00:34:54.619Z,7.13
2018-08-03T00:37:23.281Z,6.80
2018-08-03T00:39:52.072Z,6.87
2018-08-03T00:42:20.785Z,6.73
2018-08-03T00:44:49.413Z,6.97
2018-08-03T00:47:18.059Z,7.40
2018-08-03T00:49:46.755Z,7.33
2018-08-03T00:52:15.344Z,7.20
2018-08-03T00:54:43.987Z,6.90
2018-08-03T00:57:12.616Z,7.70
2018-08-03T00:59:41.304Z,7.33
2018-08-03T01:02:09.951Z,7.10
2018-08-03T01:04:38.637Z,7.23
2018-08-03T01:07:07.324Z,7.40
2018-08-03T01:09:36.117Z,6.60
2018-08-03T01:12:05.125Z,6.97
2018-08-03T01:14:33.766Z,6.70
2018-08-03T01:17:02.475Z,6.73
2018-08-03T01:19:31.169Z,6.63
2018-08-03T01:21:59.781Z,6.83
2018-08-03T01:24:28.559Z,7.00
2018-08-03T01:26:57.348Z,6.70
2018-08-03T01:29:26.114Z,7.03
2018-08-03T01:31:54.763Z,6.63
2018-08-03T01:34:23.379Z,6.93
2018-08-03T01:36:51.997Z,7.30
2018-08-03T01:39:20.991Z,6.87
2018-08-03T01:41:49.670Z,6.87
2018-08-03T01:44:18.884Z,6.50
2018-08-03T01:46:47.775Z,7.30
2018-08-03T01:49:16.429Z,7.23
2018-08-03T01:51:45.250Z,6.97
2018-08-03T01:54:13.961Z,7.17
2018-08-03T01:56:42.629Z,7.23
2018-08-03T01:59:11.635Z,7.20
2018-08-03T02:01:40.419Z,6.70
2018-08-03T02:04:09.234Z,6.83
2018-08-03T02:06:37.855Z,7.13
2018-08-03T02:09:08.429Z,6.80
2018-08-03T02:11:37.267Z,6.70
2018-08-03T02:14:06.150Z,6.80
2018-08-03T02:16:35.203Z,7.00
2018-08-03T02:19:03.934Z,7.30
2018-08-03T02:21:32.532Z,6.83
2018-08-03T02:24:01.277Z,6.70
2018-08-03T02:26:30.061Z,6.57
2018-08-03T02:28:58.979Z,6.67
2018-08-03T02:31:27.701Z,6.23
2018-08-03T02:33:56.419Z,6.87
2018-08-03T02:36:25.061Z,6.93
2018-08-03T02:38:53.712Z,6.80
2018-08-03T02:41:22.411Z,7.50
2018-08-03T02:43:51.048Z,6.97
2018-08-03T02:46:19.697Z,6.50
2018-08-03T02:48:48.660Z,6.90
2018-08-03T02:51:17.257Z,6.80
2018-08-03T02:53:45.971Z,6.73
2018-08-03T02:56:14.683Z,6.77
2018-08-03T02:58:43.387Z,7.10
2018-08-03T03:01:12.051Z,6.83
2018-08-03T03:03:40.693Z,7.10
2018-08-03T03:06:09.345Z,6.33
2018-08-03T03:08:38.000Z,6.53
2018-08-03T03:11:06.723Z,7.37
2018-08-03T03:13:35.443Z,7.37
2018-08-03T03:16:04.372Z,7.00
2018-08-03T03:18:33.088Z,7.20
2018-08-03T03:21:01.872Z,6.97
2018-08-03T03:23:30.563Z,7.10
2018-08-03T03:25:59.338Z,7.47
2018-08-03T03:28:28.066Z,7.63
2018-08-03T03:30:56.941Z,7.53
2018-08-03T03:33:25.666Z,7.37
2018-08-03T03:35:54.458Z,7.33
2018-08-03T03:38:23.188Z,7.70
2018-08-03T03:40:51.920Z,6.77
2018-08-03T03:43:20.666Z,6.87
2018-08-03T03:45:49.306Z,7.20
2018-08-03T03:48:17.930Z,6.87
2018-08-03T03:50:46.646Z,7.20
2018-08-03T03:53:15.277Z,7.47
2018-08-03T03:55:43.984Z,7.33
2018-08-03T03:58:12.598Z,7.27
2018-08-03T04:00:41.407Z,7.70
2018-08-03T04:03:10.290Z,7.30
2018-08-03T04:05:39.113Z,7.60
2018-08-03T04:08:07.837Z,7.30
2018-08-03T04:10:36.469Z,7.57
2018-08-03T04:13:05.114Z,7.40
2018-08-03T04:15:33.855Z,6.77
2018-08-03T04:18:02.495Z,7.30
2018-08-03T04:20:31.098Z,6.57
2018-08-03T04:23:00.046Z,7.17
2018-08-03T04:25:28.756Z,7.10
2018-08-03T04:27:57.420Z,6.47
2018-08-03T04:30:26.123Z,7.63
2018-08-03T04:32:54.913Z,7.00
2018-08-03T04:35:23.641Z,7.30
2018-08-03T04:37:52.980Z,7.00
2018-08-03T04:40:21.672Z,6.90
2018-08-03T04:42:50.482Z,7.27
2018-08-03T04:45:19.255Z,7.10
2018-08-03T04:47:47.990Z,6.80
2018-08-03T04:50:16.714Z,6.27
2018-08-03T04:52:45.416Z,6.50
2018-08-03T04:55:14.211Z,7.00
2018-08-03T04:57:42.944Z,7.00
2018-08-03T05:00:11.634Z,7.20
2018-08-03T05:02:40.359Z,6.33
2018-08-03T05:05:09.506Z,6.73
2018-08-03T05:07:38.479Z,7.03
2018-08-03T05:10:07.364Z,6.50
2018-08-03T05:12:36.003Z,7.03
2018-08-03T05:15:05.149Z,6.80
2018-08-03T05:17:33.832Z,6.40
2018-08-03T05:20:03.226Z,6.30
2018-08-03T05:22:31.887Z,6.80
2018-08-03T05:25:00.625Z,6.27
2018-08-03T05:27:29.304Z,6.60
2018-08-03T05:29:57.989Z,6.63
2018-08-03T05:32:26.722Z,6.27
2018-08-03T05:34:55.486Z,6.60
2018-08-03T05:37:24.272Z,6.50
2018-08-03T05:39:53.119Z,6.00
2018-08-03T05:42:21.755Z,7.00
2018-08-03T05:44:50.818Z,5.90
2018-08-03T05:47:19.512Z,5.90
2018-08-03T05:49:48.318Z,6.10
2018-08-03T05:52:16.997Z,5.77
2018-08-03T05:54:45.739Z,5.83
2018-08-03T05:57:14.515Z,5.20
2018-08-03T05:59:43.146Z,4.73
2018-08-03T06:02:11.810Z,4.93
2018-08-03T06:04:40.528Z,4.80
2018-08-03T06:07:09.195Z,4.63
2018-08-03T06:09:37.990Z,4.80
2018-08-03T06:12:06.765Z,4.97
2018-08-03T06:14:35.489Z,4.70
2018-08-03T06:17:04.202Z,4.60
2018-08-03T06:19:32.835Z,4.50
2018-08-03T06:22:01.699Z,4.67
2018-08-03T06:24:30.865Z,4.20
2018-08-03T06:26:59.504Z,4.53
2018-08-03T06:29:28.272Z,4.47
2018-08-03T06:31:56.989Z,4.33
2018-08-03T06:34:32.453Z,4.70
2018-08-03T06:37:01.561Z,4.73
2018-08-03T06:39:30.335Z,4.50
2018-08-03T06:41:58.987Z,4.50
2018-08-03T06:44:27.684Z,4.70
2018-08-03T06:46:56.404Z,4.60
2018-08-03T06:49:25.035Z,4.70
2018-08-03T06:51:53.765Z,4.40
2018-08-03T06:54:22.479Z,4.47
2018-08-03T06:56:51.225Z,4.47
2018-08-03T06:59:19.990Z,4.63
2018-08-03T07:01:48.713Z,4.00
2018-08-03T07:04:17.540Z,4.43
2018-08-03T07:06:46.303Z,4.30
2018-08-03T07:09:15.147Z,3.83
2018-08-03T07:11:43.786Z,4.10
2018-08-03T07:14:12.471Z,4.00
2018-08-03T07:16:41.196Z,4.03
2018-08-03T07:19:09.837Z,4.30
2018-08-03T07:21:38.636Z,4.07
2018-08-03T07:24:07.422Z,4.50
2018-08-03T07:26:36.181Z,3.80
2018-08-03T07:29:04.911Z,4.03
2018-08-03T07:31:33.654Z,3.83
2018-08-03T07:34:02.349Z,4.17
2018-08-03T07:36:31.073Z,4.10
2018-08-03T07:38:59.822Z,3.90
2018-08-03T07:41:28.492Z,4.10
2018-08-03T07:43:57.195Z,4.00
2018-08-03T07:46:25.939Z,3.80
2018-08-03T07:48:54.560Z,3.80
2018-08-03T07:51:23.364Z,3.57
2018-08-03T07:53:52.019Z,3.87
2018-08-03T07:56:20.740Z,3.47
2018-08-03T07:58:49.455Z,3.50
2018-08-03T08:01:18.143Z,3.60
2018-08-03T08:03:46.812Z,3.23
2018-08-03T08:06:15.462Z,3.30
2018-08-03T08:08:44.223Z,3.00
2018-08-03T08:11:13.310Z,3.37
2018-08-03T08:13:42.021Z,3.20
2018-08-03T08:16:10.749Z,2.97
2018-08-03T08:18:39.379Z,2.80
2018-08-03T08:21:08.119Z,2.80
2018-08-03T08:23:36.912Z,2.70
2018-08-03T08:26:05.655Z,2.90
2018-08-03T08:28:34.482Z,3.10
2018-08-03T08:31:03.184Z,3.07
2018-08-03T08:33:31.997Z,2.60
2018-08-03T08:36:00.655Z,2.83
2018-08-03T08:38:29.373Z,2.90
2018-08-03T08:40:58.071Z,2.90
2018-08-03T08:43:26.746Z,2.70
2018-08-03T08:45:55.407Z,2.60
2018-08-03T08:48:23.997Z,2.40
2018-08-03T08:50:52.903Z,2.30
2018-08-03T08:53:21.751Z,2.37
2018-08-03T08:55:50.365Z,2.30
2018-08-03T08:58:19.249Z,2.20
2018-08-03T09:00:48.000Z,2.30
2018-08-03T09:03:17.085Z,1.87
2018-08-03T09:05:45.839Z,2.20
2018-08-03T09:08:14.568Z,2.20
2018-08-03T09:10:43.324Z,2.20
2018-08-03T09:13:12.040Z,2.10
2018-08-03T09:15:40.795Z,2.10
2018-08-03T09:18:09.613Z,2.13
2018-08-03T09:20:38.476Z,2.00
2018-08-03T09:23:07.530Z,1.97
2018-08-03T09:25:36.261Z,1.80
2018-08-03T09:28:04.854Z,1.87
2018-08-03T09:30:33.529Z,1.70
2018-08-03T09:33:02.201Z,1.80
2018-08-03T09:35:30.835Z,1.70
2018-08-03T09:37:59.488Z,1.63
2018-08-03T09:40:28.267Z,1.60
2018-08-03T09:42:57.231Z,1.57
2018-08-03T09:45:25.896Z,1.60
2018-08-03T09:47:54.638Z,1.40
2018-08-03T09:50:23.364Z,1.70
2018-08-03T09:52:52.384Z,1.50
2018-08-03T09:55:21.551Z,1.40
2018-08-03T09:57:50.570Z,1.50
2018-08-03T10:00:23.627Z,1.47
2018-08-03T10:02:52.417Z,1.27
2018-08-03T10:05:21.073Z,1.60
2018-08-03T10:07:49.682Z,1.50
2018-08-03T10:10:18.539Z,1.30
2018-08-03T10:12:47.336Z,1.50
2018-08-03T10:15:15.954Z,1.20
2018-08-03T10:17:44.620Z,1.50
2018-08-03T10:20:13.317Z,1.47
2018-08-03T10:22:41.974Z,1.20
2018-08-03T10:25:10.781Z,1.07
2018-08-03T10:27:39.502Z,1.20
2018-08-03T10:30:08.158Z,1.30
2018-08-03T10:32:36.948Z,1.20
2018-08-03T10:35:06.720Z,1.20
2018-08-03T10:37:35.409Z,1.43
2018-08-03T10:40:04.151Z,1.10
2018-08-03T10:42:32.838Z,1.20
2018-08-03T10:45:01.470Z,1.27
2018-08-03T10:47:30.155Z,1.37
2018-08-03T10:49:58.948Z,1.17
2018-08-03T10:52:27.676Z,1.30
2018-08-03T10:54:56.403Z,1.00
2018-08-03T10:57:25.022Z,1.20
2018-08-03T10:59:53.709Z,1.13
2018-08-03T11:02:22.476Z,0.90
2018-08-03T11:04:51.269Z,1.40
2018-08-03T11:07:19.992Z,1.30
2018-08-03T11:09:48.673Z,1.00
2018-08-03T11:12:17.387Z,1.10
2018-08-03T11:14:46.028Z,0.83
2018-08-03T11:17:14.661Z,0.97
2018-08-03T11:19:43.305Z,0.70
2018-08-03T11:22:11.984Z,0.93
2018-08-03T11:24:40.601Z,1.00
2018-08-03T11:27:10.194Z,1.13
2018-08-03T11:29:38.977Z,0.73
2018-08-03T11:32:07.674Z,0.77
2018-08-03T11:34:36.366Z,0.87
2018-08-03T11:37:05.196Z,0.90
2018-08-03T11:39:33.924Z,0.90
2018-08-03T11:42:02.669Z,0.77
2018-08-03T11:44:31.411Z,0.77
2018-08-03T11:47:00.149Z,0.50
2018-08-03T11:49:28.961Z,0.60
2018-08-03T11:51:57.601Z,0.80
2018-08-03T11:54:26.362Z,0.80
2018-08-03T11:56:55.497Z,0.80
2018-08-03T11:59:24.261Z,0.87
2018-08-03T12:01:53.008Z,0.90
2018-08-03T12:04:22.030Z,0.97
2018-08-03T12:06:50.901Z,1.00
2018-08-03T12:09:19.626Z,0.93
2018-08-03T12:11:48.383Z,1.03
2018-08-03T12:14:17.084Z,0.83
2018-08-03T12:16:45.850Z,1.00
2018-08-03T12:19:14.492Z,0.87
2018-08-03T12:21:43.136Z,0.90
2018-08-03T12:24:11.903Z,0.63
2018-08-03T12:26:40.608Z,1.03
2018-08-03T12:29:09.571Z,0.70
2018-08-03T12:31:38.350Z,0.70
2018-08-03T12:34:07.137Z,0.90
2018-08-03T12:36:35.961Z,0.83
2018-08-03T12:39:06.593Z,0.90
2018-08-03T12:41:35.248Z,0.87
2018-08-03T12:44:04.389Z,1.00
2018-08-03T12:46:33.141Z,1.00
2018-08-03T12:49:01.988Z,0.90
2018-08-03T12:51:30.837Z,1.00
2018-08-03T12:53:59.470Z,0.90
2018-08-03T12:56:28.315Z,0.90
2018-08-03T12:58:57.188Z,0.90
2018-08-03T13:01:25.869Z,0.90
2018-08-03T13:03:54.532Z,0.90
2018-08-03T13:06:23.434Z,0.90
2018-08-03T13:08:52.224Z,0.80
2018-08-03T13:11:20.895Z,0.97
2018-08-03T13:13:49.774Z,0.80
2018-08-03T13:16:18.554Z,0.90
2018-08-03T13:18:47.220Z,1.00
2018-08-03T13:21:26.972Z,0.80
2018-08-03T13:23:57.706Z,0.73
2018-08-03T13:26:26.944Z,0.90
2018-08-03T13:28:56.120Z,0.80
2018-08-03T13:31:25.940Z,0.90
2018-08-03T13:33:55.007Z,1.10
2018-08-03T13:36:24.913Z,0.83
2018-08-03T13:38:53.762Z,0.80
2018-08-03T13:41:22.448Z,0.80
2018-08-03T13:43:51.242Z,0.67
2018-08-03T13:46:19.963Z,0.60
2018-08-03T13:48:49.170Z,0.70
2018-08-03T13:51:18.711Z,0.70
2018-08-03T13:53:47.880Z,0.70
2018-08-03T13:56:17.357Z,0.60
2018-08-03T13:58:46.685Z,0.60
2018-08-03T14:01:26.546Z,0.57
2018-08-03T14:03:55.298Z,0.60
2018-08-03T14:06:24.179Z,0.60
2018-08-03T14:08:52.840Z,0.63
2018-08-03T14:11:21.591Z,0.63
2018-08-03T14:13:50.222Z,0.60
2018-08-03T14:16:18.986Z,0.77
2018-08-03T14:18:48.146Z,0.50
2018-08-03T14:21:17.058Z,0.60
2018-08-03T14:23:45.868Z,0.50
2018-08-03T14:26:14.675Z,0.50
2018-08-03T14:28:43.380Z,0.63
2018-08-03T14:31:12.115Z,0.57
2018-08-03T14:33:40.802Z,0.67
2018-08-03T14:36:09.526Z,0.50
2018-08-03T14:38:38.208Z,0.57
2018-08-03T14:41:07.228Z,0.80
2018-08-03T14:43:36.035Z,0.60
2018-08-03T14:46:05.020Z,0.80
2018-08-03T14:48:33.772Z,0.53
2018-08-03T14:51:02.508Z,0.63
2018-08-03T14:53:31.327Z,0.43
2018-08-03T14:56:00.121Z,0.60
2018-08-03T14:58:28.804Z,0.47
2018-08-03T15:00:57.676Z,0.50
2018-08-03T15:03:26.956Z,0.80
2018-08-03T15:05:55.800Z,0.50
2018-08-03T15:08:24.541Z,0.60
2018-08-03T15:10:53.447Z,0.50
2018-08-03T15:13:22.202Z,4.20
2018-08-03T15:15:50.898Z,6.00
2018-08-03T15:18:19.631Z,6.27
2018-08-03T15:20:48.281Z,5.90
2018-08-03T15:23:16.883Z,6.00
2018-08-03T15:25:45.661Z,5.70
2018-08-03T15:28:14.368Z,5.83
2018-08-03T15:30:43.250Z,6.30
2018-08-03T15:33:11.852Z,5.20
2018-08-03T15:35:40.586Z,5.97
2018-08-03T15:38:09.238Z,7.13
2018-08-03T15:40:37.887Z,7.30
2018-08-03T15:43:06.899Z,7.77
2018-08-03T15:45:35.811Z,7.47
2018-08-03T15:48:04.524Z,7.47
2018-08-03T15:50:33.205Z,8.60
2018-08-03T15:53:01.890Z,8.40
2018-08-03T15:55:30.521Z,8.40
2018-08-03T15:57:59.652Z,8.40
2018-08-03T16:00:28.516Z,8.57
2018-08-03T16:02:57.381Z,8.57
2018-08-03T16:05:26.135Z,8.20
2018-08-03T16:07:55.031Z,7.03
2018-08-03T16:10:23.851Z,7.83
2018-08-03T16:12:52.544Z,7.93
2018-08-03T16:15:21.364Z,8.07
2018-08-03T16:17:50.059Z,7.77
2018-08-03T16:20:18.814Z,7.17
2018-08-03T16:22:47.521Z,7.53
2018-08-03T16:25:16.242Z,7.53
2018-08-03T16:27:45.028Z,7.30
2018-08-03T16:30:13.648Z,6.60
2018-08-03T16:32:42.373Z,6.07
2018-08-03T16:35:11.485Z,6.37
2018-08-03T16:37:40.165Z,6.13
2018-08-03T16:40:09.560Z,6.33
2018-08-03T16:42:38.256Z,6.87
2018-08-03T16:45:07.880Z,7.23
2018-08-03T16:47:36.740Z,6.57
2018-08-03T16:50:05.825Z,6.30
2018-08-03T16:52:34.594Z,6.20
2018-08-03T16:55:03.491Z,6.27
2018-08-03T16:57:32.147Z,6.00
2018-08-03T17:00:00.777Z,5.30
2018-08-03T17:02:29.443Z,5.90
2018-08-03T17:04:58.291Z,5.87
2018-08-03T17:07:27.029Z,5.90
2018-08-03T17:09:55.725Z,5.70
2018-08-03T17:12:24.663Z,6.07
2018-08-03T17:14:53.363Z,7.60
2018-08-03T17:17:22.107Z,7.53
2018-08-03T17:19:50.793Z,7.70
2018-08-03T17:22:19.558Z,7.97
2018-08-03T17:24:48.266Z,7.33
2018-08-03T17:27:16.921Z,7.50
2018-08-03T17:29:45.602Z,8.13
2018-08-03T17:32:14.392Z,7.53
2018-08-03T17:34:43.082Z,7.33
2018-08-03T17:37:11.918Z,7.37
2018-08-03T17:39:41.569Z,7.57
2018-08-03T17:42:10.147Z,7.40
2018-08-03T17:44:38.813Z,7.80
2018-08-03T17:47:07.433Z,7.93
2018-08-03T17:49:36.185Z,8.10
2018-08-03T17:52:04.984Z,8.00
2018-08-03T17:54:33.698Z,8.13
2018-08-03T17:57:02.422Z,7.77
2018-08-03T17:59:31.155Z,7.90
2018-08-03T18:01:59.879Z,9.20
2018-08-03T18:04:28.586Z,9.07
2018-08-03T18:06:57.603Z,7.50
2018-08-03T18:09:26.471Z,4.70
2018-08-03T18:11:55.143Z,2.17
2018-08-03T18:14:24.048Z,2.27
2018-08-03T18:16:52.992Z,1.20
2018-08-03T18:19:21.709Z,0.63
2018-08-03T18:21:50.464Z,0.90
2018-08-03T18:24:19.163Z,0.80
2018-08-03T18:26:47.846Z,0.70
2018-08-03T18:29:16.656Z,0.60
2018-08-03T18:31:45.304Z,0.37
2018-08-03T18:34:14.001Z,0.53
2018-08-03T18:36:42.715Z,0.50
2018-08-03T18:39:12.424Z,0.50
2018-08-03T18:41:41.230Z,0.50
2018-08-03T18:44:10.050Z,0.60
2018-08-03T18:46:38.860Z,0.50
2018-08-03T18:49:07.487Z,0.30
2018-08-03T18:51:36.322Z,0.40
2018-08-03T18:54:05.131Z,0.30
2018-08-03T18:56:33.820Z,0.30
2018-08-03T18:59:02.558Z,0.30
2018-08-03T19:01:31.370Z,0.40
2018-08-03T19:04:00.318Z,0.40
2018-08-03T19:06:29.309Z,0.40
2018-08-03T19:08:58.197Z,0.40
2018-08-03T19:11:26.968Z,0.40
2018-08-03T19:13:55.619Z,0.40
2018-08-03T19:16:24.339Z,0.40
2018-08-03T19:18:53.045Z,0.40
2018-08-03T19:21:21.836Z,0.40
2018-08-03T19:23:50.586Z,0.40
2018-08-03T19:26:19.233Z,0.37
2018-08-03T19:28:48.022Z,0.37
2018-08-03T19:31:16.754Z,0.33
2018-08-03T19:33:45.648Z,0.40
2018-08-03T19:36:14.351Z,0.50
2018-08-03T19:38:43.234Z,0.43
2018-08-03T19:41:12.079Z,0.50
2018-08-03T19:43:40.762Z,0.30
2018-08-03T19:46:09.434Z,0.30
2018-08-03T19:48:38.069Z,0.30
2018-08-03T19:51:06.966Z,0.50
2018-08-03T19:53:35.648Z,0.40
2018-08-03T19:56:04.324Z,0.50
2018-08-03T19:58:32.997Z,0.30
2018-08-03T20:01:01.588Z,0.40
2018-08-03T20:03:30.433Z,0.40
2018-08-03T20:05:59.357Z,0.50
2018-08-03T20:08:28.041Z,0.30
2018-08-03T20:10:56.722Z,0.50
2018-08-03T20:13:25.548Z,0.40
2018-08-03T20:15:54.191Z,0.60
2018-08-03T20:18:22.893Z,0.53
2018-08-03T20:20:51.652Z,0.50
2018-08-03T20:23:20.404Z,0.60
2018-08-03T20:25:49.266Z,0.50
2018-08-03T20:28:17.966Z,0.50
2018-08-03T20:30:46.897Z,0.57
2018-08-03T20:33:15.680Z,0.40
2018-08-03T20:35:44.368Z,0.40
2018-08-03T20:38:12.940Z,0.43
2018-08-03T20:41:44.435Z,0.60
2018-08-03T20:44:13.187Z,0.40
2018-08-03T20:46:41.863Z,0.50
2018-08-03T20:49:10.499Z,0.47
2018-08-03T20:51:39.213Z,0.70
2018-08-03T20:54:07.899Z,0.63
2018-08-03T20:56:36.646Z,0.50
2018-08-03T20:59:05.556Z,0.70
2018-08-03T21:01:34.224Z,0.60
2018-08-03T21:04:02.982Z,0.70
2018-08-03T21:06:31.607Z,0.70
2018-08-03T21:09:00.540Z,0.60
2018-08-03T21:11:29.244Z,0.60
2018-08-03T21:13:58.128Z,0.70
2018-08-03T21:16:26.810Z,1.13
2018-08-03T21:18:55.799Z,1.10
2018-08-03T21:21:24.567Z,1.00
2018-08-03T21:23:54.203Z,0.80
2018-08-03T21:26:23.026Z,1.00
2018-08-03T21:28:51.906Z,1.20
2018-08-03T21:31:20.677Z,0.90
2018-08-03T21:33:49.421Z,0.97
2018-08-03T21:36:18.288Z,1.10
2018-08-03T21:38:47.317Z,0.90
2018-08-03T21:41:16.041Z,1.00
2018-08-03T21:43:45.079Z,1.17
2018-08-03T21:46:13.865Z,1.13
2018-08-03T21:48:42.654Z,0.83
2018-08-03T21:51:11.385Z,0.90
2018-08-03T21:53:40.093Z,0.97
2018-08-03T21:56:08.820Z,1.00
2018-08-03T21:58:37.596Z,0.80
2018-08-03T22:01:09.664Z,1.10
2018-08-03T22:03:38.428Z,1.20
2018-08-03T22:06:07.108Z,0.97
2018-08-03T22:08:35.830Z,0.73
2018-08-03T22:11:04.733Z,0.87
2018-08-03T22:13:33.490Z,0.77
2018-08-03T22:16:02.333Z,1.10
2018-08-03T22:18:30.972Z,0.87
2018-08-03T22:20:59.870Z,1.50
2018-08-03T22:23:28.589Z,1.20
2018-08-03T22:25:57.506Z,0.90
2018-08-03T22:28:26.115Z,1.00
2018-08-03T22:30:55.204Z,0.87
2018-08-03T22:33:23.943Z,0.93
2018-08-03T22:35:52.606Z,1.30
2018-08-03T22:38:21.635Z,1.00
2018-08-03T22:40:50.390Z,1.20
2018-08-03T22:43:19.110Z,1.10
2018-08-03T22:45:47.845Z,3.20
2018-08-03T22:48:16.514Z,3.40
2018-08-03T22:50:45.177Z,1.60
2018-08-03T22:53:13.989Z,1.30
2018-08-03T22:55:42.782Z,1.20
2018-08-03T22:58:11.544Z,1.03
2018-08-03T23:00:40.153Z,1.10
2018-08-03T23:03:08.879Z,1.20
2018-08-03T23:05:37.735Z,1.27
2018-08-03T23:08:06.651Z,1.20
2018-08-03T23:10:35.446Z,1.20
2018-08-03T23:13:04.212Z,1.17
2018-08-03T23:15:33.005Z,1.17
2018-08-03T23:18:01.644Z,1.30
2018-08-03T23:20:30.453Z,1.20
2018-08-03T23:22:59.157Z,1.17
2018-08-03T23:25:27.780Z,1.13
2018-08-03T23:27:56.533Z,1.23
2018-08-03T23:30:25.183Z,1.20
2018-08-03T23:32:53.973Z,1.10
2018-08-03T23:35:22.577Z,1.20
2018-08-03T23:37:51.449Z,1.30
2018-08-03T23:40:20.136Z,1.17
2018-08-03T23:42:48.809Z,1.30
2018-08-03T23:45:17.656Z,1.20
2018-08-03T23:47:46.446Z,1.20
2018-08-03T23:50:17.934Z,1.00
2018-08-03T23:52:48.183Z,1.03
2018-08-03T23:55:17.123Z,1.40
2018-08-03T23:57:46.271Z,1.20
